createdAt,value
2023-05-12T00:02:27.945Z,12.99
2023-05-12T00:05:13.181Z,12.91
2023-05-12T00:07:58.138Z,12.85
2023-05-12T00:10:43.752Z,12.86
2023-05-12T00:13:29.437Z,12.99
2023-05-12T00:16:14.730Z,12.90
2023-05-12T00:19:00.222Z,13.07
2023-05-12T00:21:45.478Z,13.04
2023-05-12T00:24:30.496Z,13.07
2023-05-12T00:27:15.561Z,13.03
2023-05-12T00:30:00.839Z,12.94
2023-05-12T00:32:45.723Z,12.89
2023-05-12T00:35:31.003Z,12.97
2023-05-12T00:38:15.778Z,12.99
2023-05-12T00:41:01.415Z,12.97
2023-05-12T00:43:46.501Z,12.96
2023-05-12T00:46:31.540Z,13.00
2023-05-12T00:49:17.044Z,12.93
2023-05-12T00:52:02.549Z,12.91
2023-05-12T00:54:48.519Z,12.77
2023-05-12T00:57:33.445Z,12.87
2023-05-12T01:00:18.848Z,12.74
2023-05-12T01:03:04.976Z,12.73
2023-05-12T01:06:05.801Z,12.78
2023-05-12T01:08:51.272Z,12.68
2023-05-12T01:11:36.321Z,12.64
2023-05-12T01:14:21.260Z,12.65
2023-05-12T01:17:11.483Z,12.69
2023-05-12T01:19:59.993Z,12.71
2023-05-12T01:22:47.882Z,12.66
2023-05-12T01:25:34.150Z,12.55
2023-05-12T01:28:20.177Z,12.65
2023-05-12T01:31:07.002Z,12.74
2023-05-12T01:33:52.067Z,12.67
2023-05-12T01:36:37.218Z,12.64
2023-05-12T01:39:22.130Z,12.65
2023-05-12T01:42:07.453Z,12.61
2023-05-12T01:44:52.446Z,12.59
2023-05-12T01:47:37.478Z,12.54
2023-05-12T01:50:22.769Z,12.62
2023-05-12T01:53:08.261Z,12.57
2023-05-12T01:55:53.239Z,12.54
2023-05-12T01:58:38.111Z,12.49
2023-05-12T02:01:23.609Z,12.54
2023-05-12T02:04:09.137Z,12.52
2023-05-12T02:06:54.612Z,12.60
2023-05-12T02:09:39.582Z,12.53
2023-05-12T02:12:24.841Z,12.51
2023-05-12T02:15:10.058Z,12.49
2023-05-12T02:17:55.196Z,12.49
2023-05-12T02:20:40.430Z,12.52
2023-05-12T02:23:25.922Z,12.50
2023-05-12T02:26:11.078Z,12.61
2023-05-12T02:28:55.873Z,12.52
2023-05-12T02:31:40.965Z,12.53
2023-05-12T02:34:26.015Z,12.51
2023-05-12T02:37:11.034Z,12.54
2023-05-12T02:39:55.890Z,12.50
2023-05-12T02:42:40.852Z,12.49
2023-05-12T02:45:25.872Z,12.44
2023-05-12T02:48:11.141Z,12.42
2023-05-12T02:50:55.965Z,12.47
2023-05-12T02:53:40.846Z,12.46
2023-05-12T02:56:25.986Z,12.53
2023-05-12T02:59:10.797Z,12.57
2023-05-12T03:01:57.249Z,12.52
2023-05-12T03:04:42.204Z,12.53
2023-05-12T03:07:27.871Z,12.49
2023-05-12T03:10:12.927Z,12.53
2023-05-12T03:12:57.760Z,12.48
2023-05-12T03:15:42.824Z,12.52
2023-05-12T03:18:28.311Z,12.45
2023-05-12T03:21:13.573Z,12.47
2023-05-12T03:23:58.464Z,12.54
2023-05-12T03:26:44.134Z,12.52
2023-05-12T03:29:29.373Z,12.55
2023-05-12T03:32:15.913Z,12.57
2023-05-12T03:35:01.291Z,12.54
2023-05-12T03:37:46.385Z,12.53
2023-05-12T03:40:31.222Z,12.55
2023-05-12T03:43:16.466Z,12.50
2023-05-12T03:46:01.709Z,12.50
2023-05-12T03:48:47.494Z,12.53
2023-05-12T03:51:32.447Z,12.42
2023-05-12T03:54:17.836Z,12.44
2023-05-12T03:57:02.854Z,12.46
2023-05-12T03:59:47.693Z,12.46
2023-05-12T04:02:33.329Z,12.48
2023-05-12T04:05:18.502Z,12.49
2023-05-12T04:08:03.564Z,12.48
2023-05-12T04:10:48.717Z,12.47
2023-05-12T04:13:34.024Z,12.47
2023-05-12T04:16:19.508Z,12.52
2023-05-12T04:19:04.988Z,12.50
2023-05-12T04:21:50.425Z,12.47
2023-05-12T04:24:37.148Z,12.47
2023-05-12T04:27:22.516Z,12.47
2023-05-12T04:30:08.089Z,12.51
2023-05-12T04:32:53.088Z,12.41
2023-05-12T04:35:38.468Z,12.47
2023-05-12T04:38:23.867Z,12.46
2023-05-12T04:41:08.909Z,12.64
2023-05-12T04:46:42.188Z,12.51
2023-05-12T04:49:27.768Z,12.60
2023-05-12T04:52:12.982Z,12.54
2023-05-12T04:54:58.007Z,12.60
2023-05-12T04:57:43.479Z,12.55
2023-05-12T05:00:28.627Z,12.53
2023-05-12T05:03:14.226Z,12.46
2023-05-12T05:05:59.381Z,12.50
2023-05-12T05:08:44.349Z,12.52
2023-05-12T05:11:29.798Z,12.55
2023-05-12T05:14:15.236Z,12.58
2023-05-12T05:17:00.318Z,12.53
2023-05-12T05:19:56.003Z,12.53
2023-05-12T05:22:43.992Z,12.61
2023-05-12T05:25:29.364Z,12.52
2023-05-12T05:28:14.647Z,12.54
2023-05-12T05:30:59.533Z,12.74
2023-05-12T05:33:44.859Z,12.68
2023-05-12T05:36:31.581Z,12.72
2023-05-12T05:39:17.136Z,12.76
2023-05-12T05:42:02.609Z,12.86
2023-05-12T05:44:47.474Z,12.83
2023-05-12T05:47:33.072Z,12.99
2023-05-12T05:50:18.683Z,12.97
2023-05-12T05:53:03.803Z,13.02
2023-05-12T05:55:48.776Z,13.02
2023-05-12T05:58:34.110Z,13.23
2023-05-12T06:01:19.480Z,13.15
2023-05-12T06:04:04.966Z,13.20
2023-05-12T06:06:49.969Z,13.24
2023-05-12T06:09:35.412Z,13.26
2023-05-12T06:12:20.857Z,13.42
2023-05-12T06:15:07.249Z,13.51
2023-05-12T06:17:52.387Z,13.59
2023-05-12T06:20:37.234Z,13.57
2023-05-12T06:23:22.205Z,13.54
2023-05-12T06:26:07.434Z,13.57
2023-05-12T06:28:52.421Z,13.46
2023-05-12T06:31:37.825Z,13.57
2023-05-12T06:34:23.319Z,13.62
2023-05-12T06:37:08.768Z,13.67
2023-05-12T06:39:53.872Z,13.70
2023-05-12T06:42:39.238Z,13.78
2023-05-12T06:45:24.700Z,13.86
2023-05-12T06:48:09.854Z,13.82
2023-05-12T06:50:55.135Z,13.89
2023-05-12T06:53:41.024Z,14.02
2023-05-12T06:56:26.869Z,13.96
2023-05-12T06:59:11.757Z,13.98
2023-05-12T07:01:57.388Z,14.05
2023-05-12T07:04:42.684Z,14.23
2023-05-12T07:07:27.869Z,14.37
2023-05-12T07:10:13.427Z,14.52
2023-05-12T07:12:58.922Z,14.61
2023-05-12T07:15:44.069Z,14.79
2023-05-12T07:18:29.409Z,14.90
2023-05-12T07:21:14.860Z,15.02
2023-05-12T07:24:00.657Z,15.05
2023-05-12T07:26:45.560Z,15.06
2023-05-12T07:29:31.049Z,15.25
2023-05-12T07:32:16.332Z,15.36
2023-05-12T07:35:01.308Z,15.43
2023-05-12T07:37:46.270Z,15.54
2023-05-12T07:40:31.014Z,15.50
2023-05-12T07:43:16.290Z,15.59
2023-05-12T07:46:01.321Z,15.72
2023-05-12T07:48:46.730Z,15.82
2023-05-12T07:51:31.717Z,15.96
2023-05-12T07:54:17.161Z,15.96
2023-05-12T07:57:02.508Z,16.00
2023-05-12T07:59:47.414Z,15.98
2023-05-12T08:02:32.983Z,16.20
2023-05-12T08:05:18.555Z,16.19
2023-05-12T08:08:04.421Z,16.06
2023-05-12T08:10:49.435Z,15.83
2023-05-12T08:13:36.614Z,16.10
2023-05-12T08:16:21.597Z,16.02
2023-05-12T08:19:06.838Z,16.12
2023-05-12T08:21:52.202Z,16.32
2023-05-12T08:24:37.668Z,16.45
2023-05-12T08:27:23.344Z,16.63
2023-05-12T08:30:09.144Z,16.84
2023-05-12T08:32:55.407Z,16.91
2023-05-12T08:35:40.841Z,17.13
2023-05-12T08:38:26.390Z,17.25
2023-05-12T08:41:19.006Z,17.74
2023-05-12T08:44:05.221Z,17.86
2023-05-12T08:46:52.395Z,18.04
2023-05-12T08:49:39.743Z,18.06
2023-05-12T08:52:31.207Z,18.00
2023-05-12T08:55:20.697Z,17.58
2023-05-12T08:58:09.783Z,17.80
2023-05-12T09:00:56.559Z,17.56
2023-05-12T09:03:42.592Z,17.59
2023-05-12T09:06:31.206Z,17.87
2023-05-12T09:09:17.256Z,18.43
2023-05-12T09:12:16.906Z,18.94
2023-05-12T09:15:07.316Z,18.70
2023-05-12T09:17:52.638Z,18.91
2023-05-12T09:20:37.905Z,18.99
2023-05-12T09:23:23.562Z,19.15
2023-05-12T09:26:08.827Z,19.44
2023-05-12T09:29:04.890Z,19.75
2023-05-12T09:31:54.805Z,19.94
2023-05-12T09:34:40.192Z,20.24
2023-05-12T09:37:31.084Z,20.07
2023-05-12T09:40:16.110Z,20.59
2023-05-12T09:43:01.420Z,20.65
2023-05-12T09:45:47.000Z,20.70
2023-05-12T09:48:32.369Z,20.55
2023-05-12T09:51:17.936Z,20.56
2023-05-12T09:54:04.576Z,20.34
2023-05-12T09:56:52.698Z,20.30
2023-05-12T09:59:38.022Z,20.36
2023-05-12T10:02:25.239Z,20.23
2023-05-12T10:05:15.453Z,20.30
2023-05-12T10:08:03.063Z,20.60
2023-05-12T10:10:51.406Z,20.79
2023-05-12T10:13:37.998Z,21.10
2023-05-12T10:16:24.278Z,21.38
2023-05-12T10:19:11.994Z,21.37
2023-05-12T10:21:57.932Z,21.53
2023-05-12T10:24:45.261Z,21.78
2023-05-12T10:27:33.097Z,21.94
2023-05-12T10:30:18.508Z,21.78
2023-05-12T10:33:03.736Z,22.12
2023-05-12T10:35:49.702Z,21.79
2023-05-12T10:38:36.708Z,21.69
2023-05-12T10:41:35.341Z,21.54
2023-05-12T10:44:27.269Z,21.75
2023-05-12T10:47:13.483Z,21.79
2023-05-12T10:49:59.511Z,21.94
2023-05-12T10:52:54.704Z,22.19
2023-05-12T10:55:43.914Z,21.82
2023-05-12T10:58:29.662Z,22.26
2023-05-12T11:01:25.160Z,22.14
2023-05-12T11:04:14.746Z,21.72
2023-05-12T11:07:01.073Z,22.64
2023-05-12T11:09:57.038Z,22.22
2023-05-12T11:12:43.960Z,22.52
2023-05-12T11:15:30.053Z,22.27
2023-05-12T11:18:20.928Z,22.77
2023-05-12T11:21:13.262Z,22.64
2023-05-12T11:23:59.570Z,22.58
2023-05-12T11:26:46.393Z,22.60
2023-05-12T11:29:31.680Z,22.49
2023-05-12T11:32:16.981Z,22.51
2023-05-12T11:35:10.431Z,22.39
2023-05-12T11:37:55.663Z,22.62
2023-05-12T11:40:41.177Z,22.36
2023-05-12T11:43:28.434Z,22.93
2023-05-12T11:46:31.868Z,22.74
2023-05-12T11:49:17.393Z,22.80
2023-05-12T11:52:02.753Z,22.99
2023-05-12T11:54:52.522Z,23.54
2023-05-12T11:57:37.655Z,23.49
2023-05-12T12:00:31.845Z,23.87
2023-05-12T12:03:17.680Z,24.00
2023-05-12T12:06:04.190Z,24.04
2023-05-12T12:08:53.519Z,23.40
2023-05-12T12:11:39.058Z,22.78
2023-05-12T12:14:24.586Z,22.49
2023-05-12T12:17:09.961Z,22.05
2023-05-12T12:19:54.830Z,21.99
2023-05-12T12:22:40.246Z,22.10
2023-05-12T12:25:25.740Z,22.03
2023-05-12T12:28:11.075Z,22.42
2023-05-12T12:30:56.491Z,22.82
2023-05-12T12:33:42.399Z,22.96
2023-05-12T12:36:27.191Z,23.20
2023-05-12T12:39:13.102Z,22.90
2023-05-12T12:41:58.382Z,22.78
2023-05-12T12:44:43.899Z,23.09
2023-05-12T12:47:29.080Z,23.29
2023-05-12T12:50:14.339Z,23.12
2023-05-12T12:52:59.750Z,22.74
2023-05-12T12:55:46.347Z,23.02
2023-05-12T12:58:31.429Z,23.24
2023-05-12T13:01:17.077Z,23.13
2023-05-12T13:04:02.225Z,22.86
2023-05-12T13:06:47.269Z,22.45
2023-05-12T13:09:32.353Z,22.73
2023-05-12T13:12:17.710Z,22.60
2023-05-12T13:15:03.580Z,22.86
2023-05-12T13:17:48.547Z,23.14
2023-05-12T13:20:34.039Z,22.68
2023-05-12T13:23:19.450Z,22.25
2023-05-12T13:26:04.752Z,22.28
2023-05-12T13:28:50.338Z,21.97
2023-05-12T13:31:38.580Z,22.12
2023-05-12T13:34:23.993Z,21.71
2023-05-12T13:37:09.506Z,21.53
2023-05-12T13:39:55.047Z,21.69
2023-05-12T13:42:40.071Z,21.74
2023-05-12T13:45:25.673Z,21.84
2023-05-12T13:48:11.513Z,21.47
2023-05-12T13:50:56.976Z,20.70
2023-05-12T13:53:44.374Z,20.18
2023-05-12T13:56:29.555Z,19.90
2023-05-12T13:59:14.933Z,19.32
2023-05-12T14:02:00.739Z,19.03
2023-05-12T14:04:45.945Z,19.12
2023-05-12T14:07:30.884Z,19.48
2023-05-12T14:10:16.418Z,19.65
2023-05-12T14:13:05.757Z,20.01
2023-05-12T14:15:53.262Z,20.11
2023-05-12T14:18:39.400Z,20.22
2023-05-12T14:21:25.483Z,20.25
2023-05-12T14:24:10.542Z,20.42
2023-05-12T14:26:56.180Z,20.64
2023-05-12T14:29:41.474Z,20.72
2023-05-12T14:32:26.495Z,20.73
2023-05-12T14:35:11.780Z,20.88
2023-05-12T14:37:56.990Z,20.96
2023-05-12T14:40:42.549Z,21.11
2023-05-12T14:43:28.233Z,21.25
2023-05-12T14:46:13.669Z,21.39
2023-05-12T14:48:58.848Z,21.42
2023-05-12T14:51:43.934Z,21.51
2023-05-12T14:54:29.015Z,21.52
2023-05-12T14:57:13.982Z,21.46
2023-05-12T15:00:00.052Z,21.39
2023-05-12T15:02:45.445Z,21.38
2023-05-12T15:05:52.902Z,21.43
2023-05-12T15:08:36.841Z,21.57
2023-05-12T15:11:22.285Z,21.24
2023-05-12T15:14:08.285Z,20.88
2023-05-12T15:16:53.090Z,20.71
2023-05-12T15:19:38.538Z,20.79
2023-05-12T15:22:23.999Z,20.77
2023-05-12T15:25:09.558Z,20.89
2023-05-12T15:27:54.982Z,21.11
2023-05-12T15:30:39.866Z,21.11
2023-05-12T15:33:25.381Z,21.26
2023-05-12T15:36:11.056Z,21.34
2023-05-12T15:38:56.178Z,21.46
2023-05-12T15:41:42.403Z,21.48
2023-05-12T15:44:29.200Z,21.66
2023-05-12T15:47:14.371Z,21.72
2023-05-12T15:49:59.679Z,21.60
2023-05-12T15:52:46.025Z,21.53
2023-05-12T15:55:31.497Z,21.57
2023-05-12T15:58:16.563Z,21.62
2023-05-12T16:01:01.607Z,21.62
2023-05-12T16:03:46.499Z,21.56
2023-05-12T16:06:31.933Z,21.59
2023-05-12T16:09:17.512Z,21.51
2023-05-12T16:12:03.010Z,21.48
2023-05-12T16:14:50.800Z,21.80
2023-05-12T16:17:35.994Z,21.90
2023-05-12T16:20:23.022Z,21.80
2023-05-12T16:23:08.605Z,21.65
2023-05-12T16:25:54.256Z,21.54
2023-05-12T16:28:39.264Z,21.48
2023-05-12T16:31:24.885Z,21.48
2023-05-12T16:34:10.287Z,21.40
2023-05-12T16:36:55.981Z,21.39
2023-05-12T16:39:42.038Z,21.32
2023-05-12T16:42:26.981Z,21.48
2023-05-12T16:45:12.342Z,21.54
2023-05-12T16:47:57.412Z,21.48
2023-05-12T16:50:42.759Z,21.37
2023-05-12T16:53:27.875Z,21.34
2023-05-12T16:56:14.338Z,21.10
2023-05-12T16:58:59.532Z,21.11
2023-05-12T17:01:44.933Z,21.25
2023-05-12T17:04:30.311Z,21.39
2023-05-12T17:07:15.577Z,21.16
2023-05-12T17:10:01.606Z,21.27
2023-05-12T17:12:46.872Z,21.32
2023-05-12T17:15:31.915Z,21.36
2023-05-12T17:18:17.341Z,21.26
2023-05-12T17:21:02.664Z,21.14
2023-05-12T17:23:47.708Z,21.28
2023-05-12T17:26:33.101Z,21.27
2023-05-12T17:29:18.598Z,21.26
2023-05-12T17:32:04.112Z,21.21
2023-05-12T17:34:49.958Z,21.17
2023-05-12T17:37:36.072Z,21.16
2023-05-12T17:40:22.208Z,21.12
2023-05-12T17:43:07.569Z,20.88
2023-05-12T17:45:52.988Z,21.05
2023-05-12T17:48:38.600Z,21.18
2023-05-12T17:51:24.407Z,21.12
2023-05-12T17:54:09.707Z,20.97
2023-05-12T17:56:55.085Z,20.85
2023-05-12T17:59:40.670Z,20.78
2023-05-12T18:02:27.151Z,20.67
2023-05-12T18:05:12.362Z,20.78
2023-05-12T18:07:57.484Z,20.78
2023-05-12T18:10:43.290Z,20.65
2023-05-12T18:13:31.869Z,20.47
2023-05-12T18:16:28.055Z,20.55
2023-05-12T18:19:14.704Z,20.44
2023-05-12T18:21:59.883Z,20.34
2023-05-12T18:24:45.618Z,20.26
2023-05-12T18:27:30.996Z,20.37
2023-05-12T18:30:16.087Z,20.25
2023-05-12T18:33:01.568Z,20.12
2023-05-12T18:35:46.950Z,20.08
2023-05-12T18:38:31.884Z,19.80
2023-05-12T18:41:16.732Z,19.68
2023-05-12T18:44:01.598Z,19.75
2023-05-12T18:46:46.850Z,19.70
2023-05-12T18:49:32.274Z,19.62
2023-05-12T18:52:17.391Z,19.58
2023-05-12T18:55:04.231Z,19.31
2023-05-12T18:57:49.813Z,19.32
2023-05-12T19:00:35.451Z,19.24
2023-05-12T19:03:20.505Z,19.16
2023-05-12T19:06:05.850Z,19.23
2023-05-12T19:08:51.184Z,19.24
2023-05-12T19:11:36.619Z,19.14
2023-05-12T19:14:21.902Z,19.09
2023-05-12T19:17:07.241Z,19.03
2023-05-12T19:19:52.598Z,18.85
2023-05-12T19:22:37.920Z,18.76
2023-05-12T19:25:23.786Z,18.69
2023-05-12T19:28:09.090Z,18.53
2023-05-12T19:30:55.282Z,18.31
2023-05-12T19:33:40.435Z,18.33
2023-05-12T19:36:25.916Z,18.13
2023-05-12T19:39:11.106Z,18.04
2023-05-12T19:41:56.291Z,17.92
2023-05-12T19:44:41.238Z,17.71
2023-05-12T19:47:26.818Z,17.59
2023-05-12T19:50:12.317Z,17.48
2023-05-12T19:52:57.818Z,17.34
2023-05-12T19:55:43.286Z,17.34
2023-05-12T19:58:28.166Z,17.34
2023-05-12T20:01:13.906Z,17.05
2023-05-12T20:03:59.156Z,16.92
2023-05-12T20:06:44.977Z,16.47
2023-05-12T20:09:30.431Z,16.00
2023-05-12T20:12:15.915Z,15.90
2023-05-12T20:15:01.394Z,15.76
2023-05-12T20:17:46.847Z,15.82
2023-05-12T20:20:32.763Z,15.84
2023-05-12T20:23:18.347Z,15.59
2023-05-12T20:26:03.524Z,15.55
2023-05-12T20:28:48.530Z,15.51
2023-05-12T20:31:34.338Z,15.38
2023-05-12T20:34:19.568Z,15.23
2023-05-12T20:37:04.913Z,14.89
2023-05-12T20:39:50.321Z,14.64
2023-05-12T20:42:35.629Z,14.40
2023-05-12T20:45:20.984Z,14.06
2023-05-12T20:48:06.615Z,14.16
2023-05-12T20:50:51.609Z,14.07
2023-05-12T20:53:36.473Z,14.19
2023-05-12T20:56:21.653Z,14.09
2023-05-12T20:59:06.841Z,13.95
2023-05-12T21:01:51.728Z,13.87
2023-05-12T21:04:37.033Z,14.06
2023-05-12T21:07:22.363Z,14.03
2023-05-12T21:10:07.988Z,14.07
2023-05-12T21:12:52.927Z,14.00
2023-05-12T21:15:37.961Z,13.73
2023-05-12T21:18:23.411Z,13.49
2023-05-12T21:21:08.860Z,13.43
2023-05-12T21:23:54.138Z,13.37
2023-05-12T21:26:39.176Z,13.36
2023-05-12T21:29:25.995Z,13.36
2023-05-12T21:32:11.197Z,13.46
2023-05-12T21:34:56.530Z,13.58
2023-05-12T21:37:41.587Z,13.58
2023-05-12T21:40:26.347Z,13.53
2023-05-12T21:43:11.171Z,13.78
2023-05-12T21:45:56.359Z,13.97
2023-05-12T21:48:41.280Z,14.11
2023-05-12T21:51:27.094Z,13.79
2023-05-12T21:54:12.080Z,13.56
2023-05-12T21:56:57.010Z,13.14
2023-05-12T21:59:41.923Z,12.69
2023-05-12T22:02:26.766Z,12.64
2023-05-12T22:05:12.083Z,12.73
2023-05-12T22:07:57.210Z,12.52
2023-05-12T22:10:42.576Z,12.32
2023-05-12T22:13:27.529Z,12.35
2023-05-12T22:16:12.600Z,12.23
2023-05-12T22:18:57.573Z,12.22
2023-05-12T22:21:43.053Z,12.08
2023-05-12T22:24:28.398Z,12.17
2023-05-12T22:27:13.350Z,12.18
2023-05-12T22:29:59.199Z,12.18
2023-05-12T22:32:44.709Z,12.32
2023-05-12T22:35:29.669Z,12.35
2023-05-12T22:38:14.413Z,12.45
2023-05-12T22:40:59.390Z,12.55
2023-05-12T22:43:44.130Z,12.77
2023-05-12T22:46:29.105Z,12.92
2023-05-12T22:49:14.513Z,12.79
2023-05-12T22:51:59.648Z,12.53
2023-05-12T22:54:44.574Z,12.05
2023-05-12T22:57:30.263Z,11.96
2023-05-12T23:00:15.401Z,11.75
2023-05-12T23:03:00.372Z,11.77
2023-05-12T23:05:45.577Z,11.71
2023-05-12T23:08:30.282Z,11.70
2023-05-12T23:11:15.724Z,11.74
2023-05-12T23:14:01.200Z,11.88
2023-05-12T23:16:46.367Z,11.75
2023-05-12T23:19:31.957Z,11.73
2023-05-12T23:22:17.365Z,11.77
2023-05-12T23:25:02.526Z,12.10
2023-05-12T23:27:47.719Z,12.29
2023-05-12T23:30:32.617Z,12.30
2023-05-12T23:33:18.337Z,12.48
2023-05-12T23:36:03.768Z,12.63
2023-05-12T23:38:50.470Z,12.84
2023-05-12T23:41:35.726Z,13.01
2023-05-12T23:44:21.106Z,13.16
2023-05-12T23:47:06.721Z,13.18
2023-05-12T23:49:51.935Z,13.38
2023-05-12T23:52:37.563Z,13.50
2023-05-12T23:55:22.743Z,13.59
2023-05-12T23:58:07.875Z,13.67
